Terminal Aerodrome Forecast
Issued by NWS

Home | Current Version | Previous Version | Text Only | Print | Product List | Glossary On
Versions: 1 2 3 4 5 6 7 8 9 10 11 12 13 14 15 16 17 18 19
000
FTUS42 KTBW 051100
TAFRSW
TAF
KRSW 051140Z 0512/0612 14004KT 6SM BR SCT005
      TEMPO 0512/0514 3SM BR BKN004 OVC020
     FM051400 16008KT P6SM SCT025 SCT040
     FM051900 21012KT P6SM FEW035 SCT050
     FM060400 00000KT P6SM FEW030 SCT250=

USA.gov is the U.S. government's official web portal to all federal, state and local government web resources and services.